sensor_id;sensor_type;location;lat;lon;timestamp;P1;durP1;ratioP1;P2;durP2;ratioP2
51840;SDS011;37888;53.246;6.658;2023-06-22T00:00:51;10.30;;;9.18;;
51840;SDS011;37888;53.246;6.658;2023-06-22T00:03:18;10.93;;;9.93;;
51840;SDS011;37888;53.246;6.658;2023-06-22T00:05:45;12.40;;;11.10;;
51840;SDS011;37888;53.246;6.658;2023-06-22T00:08:11;13.30;;;12.10;;
51840;SDS011;37888;53.246;6.658;2023-06-22T00:10:37;6.55;;;5.78;;
51840;SDS011;37888;53.246;6.658;2023-06-22T00:13:03;24.45;;;4.95;;
51840;SDS011;37888;53.246;6.658;2023-06-22T00:15:30;5.13;;;4.63;;
51840;SDS011;37888;53.246;6.658;2023-06-22T00:17:56;5.68;;;5.18;;
51840;SDS011;37888;53.246;6.658;2023-06-22T00:20:22;5.80;;;5.28;;
51840;SDS011;37888;53.246;6.658;2023-06-22T00:22:53;9.35;;;8.55;;
51840;SDS011;37888;53.246;6.658;2023-06-22T00:25:19;7.63;;;7.00;;
51840;SDS011;37888;53.246;6.658;2023-06-22T00:27:44;8.02;;;7.32;;
51840;SDS011;37888;53.246;6.658;2023-06-22T00:30:10;8.73;;;8.02;;
51840;SDS011;37888;53.246;6.658;2023-06-22T00:32:36;9.05;;;8.18;;
51840;SDS011;37888;53.246;6.658;2023-06-22T00:35:02;9.05;;;8.25;;
51840;SDS011;37888;53.246;6.658;2023-06-22T00:37:28;7.43;;;6.82;;
51840;SDS011;37888;53.246;6.658;2023-06-22T00:39:54;6.57;;;5.70;;
51840;SDS011;37888;53.246;6.658;2023-06-22T00:42:21;5.18;;;4.70;;
51840;SDS011;37888;53.246;6.658;2023-06-22T00:44:47;6.03;;;5.43;;
51840;SDS011;37888;53.246;6.658;2023-06-22T00:47:15;4.72;;;4.32;;
51840;SDS011;37888;53.246;6.658;2023-06-22T00:49:43;4.68;;;4.28;;
51840;SDS011;37888;53.246;6.658;2023-06-22T00:52:09;7.07;;;5.70;;
51840;SDS011;37888;53.246;6.658;2023-06-22T00:54:40;7.65;;;6.93;;
51840;SDS011;37888;53.246;6.658;2023-06-22T00:57:13;8.10;;;7.28;;
51840;SDS011;37888;53.246;6.658;2023-06-22T00:59:43;12.52;;;3.15;;
51840;SDS011;37888;53.246;6.658;2023-06-22T01:02:10;37.85;;;6.03;;
51840;SDS011;37888;53.246;6.658;2023-06-22T01:04:38;9.05;;;6.15;;
51840;SDS011;37888;53.246;6.658;2023-06-22T01:09:51;5.35;;;4.85;;
51840;SDS011;37888;53.246;6.658;2023-06-22T01:12:48;28.20;;;4.68;;
51840;SDS011;37888;53.246;6.658;2023-06-22T01:15:25;91.18;;;6.25;;
51840;SDS011;37888;53.246;6.658;2023-06-22T01:17:55;124.45;;;8.65;;
51840;SDS011;37888;53.246;6.658;2023-06-22T01:20:23;126.75;;;9.70;;
51840;SDS011;37888;53.246;6.658;2023-06-22T01:23:02;26.65;;;6.72;;
51840;SDS011;37888;53.246;6.658;2023-06-22T01:25:46;20.05;;;6.75;;
51840;SDS011;37888;53.246;6.658;2023-06-22T01:31:08;76.00;;;10.05;;
51840;SDS011;37888;53.246;6.658;2023-06-22T01:33:37;13.75;;;8.50;;
51840;SDS011;37888;53.246;6.658;2023-06-22T01:36:05;26.67;;;9.23;;
51840;SDS011;37888;53.246;6.658;2023-06-22T01:38:32;10.80;;;8.52;;
51840;SDS011;37888;53.246;6.658;2023-06-22T01:40:59;17.67;;;8.02;;
51840;SDS011;37888;53.246;6.658;2023-06-22T01:45:53;9.63;;;8.50;;
51840;SDS011;37888;53.246;6.658;2023-06-22T01:48:23;22.88;;;8.73;;
51840;SDS011;37888;53.246;6.658;2023-06-22T01:50:51;16.25;;;8.18;;
51840;SDS011;37888;53.246;6.658;2023-06-22T01:53:18;8.80;;;7.72;;
51840;SDS011;37888;53.246;6.658;2023-06-22T01:55:49;10.77;;;7.35;;
51840;SDS011;37888;53.246;6.658;2023-06-22T01:58:15;26.55;;;6.85;;
51840;SDS011;37888;53.246;6.658;2023-06-22T02:00:44;20.25;;;7.53;;
51840;SDS011;37888;53.246;6.658;2023-06-22T02:03:19;8.43;;;7.72;;
51840;SDS011;37888;53.246;6.658;2023-06-22T02:05:49;16.85;;;8.20;;
51840;SDS011;37888;53.246;6.658;2023-06-22T02:08:19;25.50;;;8.27;;
51840;SDS011;37888;53.246;6.658;2023-06-22T02:10:48;8.18;;;7.32;;
51840;SDS011;37888;53.246;6.658;2023-06-22T02:13:15;8.82;;;8.13;;
51840;SDS011;37888;53.246;6.658;2023-06-22T02:15:42;9.57;;;7.97;;
51840;SDS011;37888;53.246;6.658;2023-06-22T02:18:08;55.42;;;8.77;;
51840;SDS011;37888;53.246;6.658;2023-06-22T02:20:37;9.77;;;6.13;;
51840;SDS011;37888;53.246;6.658;2023-06-22T02:23:04;6.43;;;5.93;;
51840;SDS011;37888;53.246;6.658;2023-06-22T02:25:31;11.15;;;6.82;;
51840;SDS011;37888;53.246;6.658;2023-06-22T02:27:58;7.45;;;6.72;;
51840;SDS011;37888;53.246;6.658;2023-06-22T02:30:23;54.00;;;8.90;;
51840;SDS011;37888;53.246;6.658;2023-06-22T02:32:49;48.92;;;8.10;;
51840;SDS011;37888;53.246;6.658;2023-06-22T02:35:27;35.13;;;8.75;;
51840;SDS011;37888;53.246;6.658;2023-06-22T02:37:59;17.80;;;8.82;;
51840;SDS011;37888;53.246;6.658;2023-06-22T02:40:27;11.63;;;8.60;;
51840;SDS011;37888;53.246;6.658;2023-06-22T02:45:20;8.70;;;7.90;;
51840;SDS011;37888;53.246;6.658;2023-06-22T02:47:46;11.82;;;10.82;;
51840;SDS011;37888;53.246;6.658;2023-06-22T02:50:13;12.82;;;11.70;;
51840;SDS011;37888;53.246;6.658;2023-06-22T02:52:39;10.05;;;9.18;;
51840;SDS011;37888;53.246;6.658;2023-06-22T02:55:05;10.70;;;9.80;;
51840;SDS011;37888;53.246;6.658;2023-06-22T02:57:32;24.17;;;9.38;;
51840;SDS011;37888;53.246;6.658;2023-06-22T02:59:58;65.15;;;11.23;;
51840;SDS011;37888;53.246;6.658;2023-06-22T03:02:24;27.50;;;11.55;;
51840;SDS011;37888;53.246;6.658;2023-06-22T03:04:51;25.35;;;13.43;;
51840;SDS011;37888;53.246;6.658;2023-06-22T03:07:19;27.35;;;13.88;;
51840;SDS011;37888;53.246;6.658;2023-06-22T03:09:45;19.47;;;11.93;;
51840;SDS011;37888;53.246;6.658;2023-06-22T03:12:11;12.15;;;10.55;;
51840;SDS011;37888;53.246;6.658;2023-06-22T03:14:37;16.88;;;9.05;;
51840;SDS011;37888;53.246;6.658;2023-06-22T03:17:04;27.63;;;12.75;;
51840;SDS011;37888;53.246;6.658;2023-06-22T03:19:30;43.00;;;13.20;;
51840;SDS011;37888;53.246;6.658;2023-06-22T03:22:00;21.70;;;12.70;;
51840;SDS011;37888;53.246;6.658;2023-06-22T03:24:25;42.30;;;13.60;;
51840;SDS011;37888;53.246;6.658;2023-06-22T03:26:53;12.23;;;10.00;;
51840;SDS011;37888;53.246;6.658;2023-06-22T03:29:19;14.02;;;9.40;;
51840;SDS011;37888;53.246;6.658;2023-06-22T03:31:45;29.98;;;12.52;;
51840;SDS011;37888;53.246;6.658;2023-06-22T03:34:11;37.30;;;14.30;;
51840;SDS011;37888;53.246;6.658;2023-06-22T03:36:36;16.30;;;14.00;;
51840;SDS011;37888;53.246;6.658;2023-06-22T03:39:02;74.70;;;16.83;;
51840;SDS011;37888;53.246;6.658;2023-06-22T03:41:28;20.00;;;15.60;;
51840;SDS011;37888;53.246;6.658;2023-06-22T03:43:54;22.30;;;15.15;;
51840;SDS011;37888;53.246;6.658;2023-06-22T03:46:19;17.63;;;15.70;;
51840;SDS011;37888;53.246;6.658;2023-06-22T03:48:45;20.27;;;15.40;;
51840;SDS011;37888;53.246;6.658;2023-06-22T03:51:11;18.15;;;14.27;;
51840;SDS011;37888;53.246;6.658;2023-06-22T03:53:36;21.45;;;13.95;;
51840;SDS011;37888;53.246;6.658;2023-06-22T03:56:02;128.27;;;15.98;;
51840;SDS011;37888;53.246;6.658;2023-06-22T03:58:28;52.78;;;16.48;;
51840;SDS011;37888;53.246;6.658;2023-06-22T04:00:57;30.20;;;13.27;;
51840;SDS011;37888;53.246;6.658;2023-06-22T04:03:25;39.55;;;11.93;;
51840;SDS011;37888;53.246;6.658;2023-06-22T04:05:50;12.02;;;10.93;;
51840;SDS011;37888;53.246;6.658;2023-06-22T04:08:17;11.75;;;10.75;;
51840;SDS011;37888;53.246;6.658;2023-06-22T04:10:43;24.02;;;10.75;;
51840;SDS011;37888;53.246;6.658;2023-06-22T04:13:09;10.23;;;9.13;;
51840;SDS011;37888;53.246;6.658;2023-06-22T04:15:35;9.60;;;8.65;;
51840;SDS011;37888;53.246;6.658;2023-06-22T04:18:01;8.38;;;7.68;;
51840;SDS011;37888;53.246;6.658;2023-06-22T04:20:27;8.77;;;7.97;;
51840;SDS011;37888;53.246;6.658;2023-06-22T04:22:56;9.55;;;8.50;;
51840;SDS011;37888;53.246;6.658;2023-06-22T04:25:21;9.35;;;8.55;;
51840;SDS011;37888;53.246;6.658;2023-06-22T04:27:47;10.93;;;10.07;;
51840;SDS011;37888;53.246;6.658;2023-06-22T04:30:13;9.10;;;8.32;;
51840;SDS011;37888;53.246;6.658;2023-06-22T04:32:41;8.90;;;8.20;;
51840;SDS011;37888;53.246;6.658;2023-06-22T04:35:07;8.88;;;8.18;;
51840;SDS011;37888;53.246;6.658;2023-06-22T04:37:33;9.15;;;8.45;;
51840;SDS011;37888;53.246;6.658;2023-06-22T04:39:59;9.02;;;8.32;;
51840;SDS011;37888;53.246;6.658;2023-06-22T04:42:26;9.70;;;8.80;;
51840;SDS011;37888;53.246;6.658;2023-06-22T04:44:52;9.38;;;8.57;;
51840;SDS011;37888;53.246;6.658;2023-06-22T04:47:18;9.80;;;8.90;;
51840;SDS011;37888;53.246;6.658;2023-06-22T04:49:43;11.63;;;10.63;;
51840;SDS011;37888;53.246;6.658;2023-06-22T04:52:10;11.63;;;10.55;;
51840;SDS011;37888;53.246;6.658;2023-06-22T04:54:38;12.85;;;11.65;;
51840;SDS011;37888;53.246;6.658;2023-06-22T04:57:20;12.02;;;10.95;;
51840;SDS011;37888;53.246;6.658;2023-06-22T04:59:46;12.50;;;11.50;;
51840;SDS011;37888;53.246;6.658;2023-06-22T05:02:12;13.80;;;12.50;;
51840;SDS011;37888;53.246;6.658;2023-06-22T05:04:38;15.68;;;13.98;;
51840;SDS011;37888;53.246;6.658;2023-06-22T05:07:03;15.48;;;14.15;;
51840;SDS011;37888;53.246;6.658;2023-06-22T05:09:30;16.45;;;14.85;;
51840;SDS011;37888;53.246;6.658;2023-06-22T05:11:55;14.45;;;12.98;;
51840;SDS011;37888;53.246;6.658;2023-06-22T05:14:21;15.35;;;13.85;;
51840;SDS011;37888;53.246;6.658;2023-06-22T05:16:48;16.00;;;14.48;;
51840;SDS011;37888;53.246;6.658;2023-06-22T05:19:14;15.25;;;13.75;;
51840;SDS011;37888;53.246;6.658;2023-06-22T05:21:39;17.90;;;16.25;;
51840;SDS011;37888;53.246;6.658;2023-06-22T05:24:05;18.05;;;16.38;;
51840;SDS011;37888;53.246;6.658;2023-06-22T05:26:33;22.20;;;19.98;;
51840;SDS011;37888;53.246;6.658;2023-06-22T05:29:00;19.48;;;17.60;;
51840;SDS011;37888;53.246;6.658;2023-06-22T05:31:27;21.80;;;19.70;;
51840;SDS011;37888;53.246;6.658;2023-06-22T05:33:54;23.53;;;21.17;;
51840;SDS011;37888;53.246;6.658;2023-06-22T05:36:20;22.97;;;20.57;;
51840;SDS011;37888;53.246;6.658;2023-06-22T05:38:49;24.33;;;21.88;;
51840;SDS011;37888;53.246;6.658;2023-06-22T05:41:15;26.60;;;23.88;;
51840;SDS011;37888;53.246;6.658;2023-06-22T05:43:41;24.77;;;22.20;;
51840;SDS011;37888;53.246;6.658;2023-06-22T05:46:07;23.27;;;20.98;;
51840;SDS011;37888;53.246;6.658;2023-06-22T05:48:33;24.10;;;21.75;;
51840;SDS011;37888;53.246;6.658;2023-06-22T05:50:58;25.02;;;22.52;;
51840;SDS011;37888;53.246;6.658;2023-06-22T05:53:24;21.27;;;19.17;;
51840;SDS011;37888;53.246;6.658;2023-06-22T05:55:50;20.10;;;18.15;;
51840;SDS011;37888;53.246;6.658;2023-06-22T05:58:16;22.15;;;20.05;;
51840;SDS011;37888;53.246;6.658;2023-06-22T06:00:42;20.63;;;18.63;;
51840;SDS011;37888;53.246;6.658;2023-06-22T06:03:08;19.13;;;17.33;;
51840;SDS011;37888;53.246;6.658;2023-06-22T06:05:36;19.17;;;17.45;;
51840;SDS011;37888;53.246;6.658;2023-06-22T06:08:03;18.35;;;16.75;;
51840;SDS011;37888;53.246;6.658;2023-06-22T06:10:31;18.55;;;16.75;;
51840;SDS011;37888;53.246;6.658;2023-06-22T06:12:58;15.77;;;14.10;;
51840;SDS011;37888;53.246;6.658;2023-06-22T06:15:23;16.60;;;14.98;;
51840;SDS011;37888;53.246;6.658;2023-06-22T06:17:50;15.15;;;13.85;;
51840;SDS011;37888;53.246;6.658;2023-06-22T06:20:21;13.10;;;11.98;;
51840;SDS011;37888;53.246;6.658;2023-06-22T06:22:48;13.18;;;11.98;;
51840;SDS011;37888;53.246;6.658;2023-06-22T06:25:14;12.10;;;11.00;;
51840;SDS011;37888;53.246;6.658;2023-06-22T06:27:44;11.82;;;10.63;;
51840;SDS011;37888;53.246;6.658;2023-06-22T06:30:11;11.38;;;10.38;;
51840;SDS011;37888;53.246;6.658;2023-06-22T06:35:08;10.88;;;9.88;;
51840;SDS011;37888;53.246;6.658;2023-06-22T06:37:36;10.82;;;9.73;;
51840;SDS011;37888;53.246;6.658;2023-06-22T06:40:03;11.07;;;9.98;;
51840;SDS011;37888;53.246;6.658;2023-06-22T06:42:32;11.02;;;10.05;;
51840;SDS011;37888;53.246;6.658;2023-06-22T06:44:58;10.88;;;9.88;;
51840;SDS011;37888;53.246;6.658;2023-06-22T06:47:23;10.90;;;9.80;;
51840;SDS011;37888;53.246;6.658;2023-06-22T06:49:49;10.10;;;9.18;;
51840;SDS011;37888;53.246;6.658;2023-06-22T06:52:15;11.15;;;10.10;;
51840;SDS011;37888;53.246;6.658;2023-06-22T06:54:41;10.57;;;9.52;;
51840;SDS011;37888;53.246;6.658;2023-06-22T06:57:07;10.05;;;9.15;;
51840;SDS011;37888;53.246;6.658;2023-06-22T06:59:35;10.95;;;9.95;;
51840;SDS011;37888;53.246;6.658;2023-06-22T07:02:01;8.15;;;7.35;;
51840;SDS011;37888;53.246;6.658;2023-06-22T07:04:27;8.50;;;7.75;;
51840;SDS011;37888;53.246;6.658;2023-06-22T07:06:53;7.43;;;6.57;;
51840;SDS011;37888;53.246;6.658;2023-06-22T07:09:19;6.20;;;5.60;;
51840;SDS011;37888;53.246;6.658;2023-06-22T07:11:44;7.72;;;6.93;;
51840;SDS011;37888;53.246;6.658;2023-06-22T07:14:10;6.60;;;6.00;;
51840;SDS011;37888;53.246;6.658;2023-06-22T07:16:36;6.53;;;5.93;;
51840;SDS011;37888;53.246;6.658;2023-06-22T07:19:02;7.15;;;6.45;;
51840;SDS011;37888;53.246;6.658;2023-06-22T07:21:27;7.77;;;6.93;;
51840;SDS011;37888;53.246;6.658;2023-06-22T07:23:53;6.83;;;6.23;;
51840;SDS011;37888;53.246;6.658;2023-06-22T07:26:20;5.95;;;5.45;;
51840;SDS011;37888;53.246;6.658;2023-06-22T07:28:45;6.30;;;5.70;;
51840;SDS011;37888;53.246;6.658;2023-06-22T07:31:11;6.43;;;5.37;;
51840;SDS011;37888;53.246;6.658;2023-06-22T07:33:37;6.07;;;4.80;;
51840;SDS011;37888;53.246;6.658;2023-06-22T07:36:03;6.15;;;5.57;;
51840;SDS011;37888;53.246;6.658;2023-06-22T07:38:32;5.60;;;5.10;;
51840;SDS011;37888;53.246;6.658;2023-06-22T07:41:00;6.13;;;5.53;;
51840;SDS011;37888;53.246;6.658;2023-06-22T07:43:26;6.32;;;5.72;;
51840;SDS011;37888;53.246;6.658;2023-06-22T07:45:52;7.10;;;5.20;;
51840;SDS011;37888;53.246;6.658;2023-06-22T07:48:21;7.32;;;5.18;;
51840;SDS011;37888;53.246;6.658;2023-06-22T07:50:47;5.38;;;4.88;;
51840;SDS011;37888;53.246;6.658;2023-06-22T07:53:14;7.45;;;4.90;;
51840;SDS011;37888;53.246;6.658;2023-06-22T07:55:40;4.97;;;4.28;;
51840;SDS011;37888;53.246;6.658;2023-06-22T07:58:06;4.77;;;4.33;;
51840;SDS011;37888;53.246;6.658;2023-06-22T08:00:33;4.50;;;4.10;;
51840;SDS011;37888;53.246;6.658;2023-06-22T08:02:59;4.65;;;4.07;;
51840;SDS011;37888;53.246;6.658;2023-06-22T08:05:24;4.43;;;3.85;;
51840;SDS011;37888;53.246;6.658;2023-06-22T08:07:55;3.80;;;3.40;;
51840;SDS011;37888;53.246;6.658;2023-06-22T08:10:21;4.17;;;3.40;;
51840;SDS011;37888;53.246;6.658;2023-06-22T08:12:46;4.45;;;3.97;;
51840;SDS011;37888;53.246;6.658;2023-06-22T08:15:12;4.55;;;3.97;;
51840;SDS011;37888;53.246;6.658;2023-06-22T08:17:38;4.10;;;3.70;;
51840;SDS011;37888;53.246;6.658;2023-06-22T08:20:04;4.22;;;3.83;;
51840;SDS011;37888;53.246;6.658;2023-06-22T08:22:35;4.10;;;3.70;;
51840;SDS011;37888;53.246;6.658;2023-06-22T08:25:02;4.47;;;3.60;;
51840;SDS011;37888;53.246;6.658;2023-06-22T08:27:29;6.00;;;4.00;;
51840;SDS011;37888;53.246;6.658;2023-06-22T08:29:56;4.68;;;4.10;;
51840;SDS011;37888;53.246;6.658;2023-06-22T08:32:28;4.22;;;3.70;;
51840;SDS011;37888;53.246;6.658;2023-06-22T08:34:54;3.78;;;3.38;;
51840;SDS011;37888;53.246;6.658;2023-06-22T08:42:15;3.97;;;3.50;;
51840;SDS011;37888;53.246;6.658;2023-06-22T08:44:40;5.07;;;3.73;;
51840;SDS011;37888;53.246;6.658;2023-06-22T08:47:06;4.27;;;3.77;;
51840;SDS011;37888;53.246;6.658;2023-06-22T08:49:32;3.77;;;3.33;;
51840;SDS011;37888;53.246;6.658;2023-06-22T08:52:01;4.43;;;3.60;;
51840;SDS011;37888;53.246;6.658;2023-06-22T08:54:35;4.15;;;3.20;;
51840;SDS011;37888;53.246;6.658;2023-06-22T08:57:02;3.75;;;3.38;;
51840;SDS011;37888;53.246;6.658;2023-06-22T08:59:28;4.43;;;3.55;;
51840;SDS011;37888;53.246;6.658;2023-06-22T09:01:54;4.15;;;2.67;;
51840;SDS011;37888;53.246;6.658;2023-06-22T09:04:20;3.53;;;2.67;;
51840;SDS011;37888;53.246;6.658;2023-06-22T09:06:49;3.15;;;2.70;;
51840;SDS011;37888;53.246;6.658;2023-06-22T09:09:24;2.97;;;2.60;;
51840;SDS011;37888;53.246;6.658;2023-06-22T09:11:52;4.00;;;3.20;;
51840;SDS011;37888;53.246;6.658;2023-06-22T09:14:21;3.93;;;2.93;;
51840;SDS011;37888;53.246;6.658;2023-06-22T09:16:48;3.70;;;2.80;;
51840;SDS011;37888;53.246;6.658;2023-06-22T09:19:14;3.47;;;2.90;;
51840;SDS011;37888;53.246;6.658;2023-06-22T09:21:42;3.25;;;2.95;;
51840;SDS011;37888;53.246;6.658;2023-06-22T09:24:08;3.83;;;3.10;;
51840;SDS011;37888;53.246;6.658;2023-06-22T09:26:34;3.53;;;3.23;;
51840;SDS011;37888;53.246;6.658;2023-06-22T09:28:59;3.77;;;3.37;;
51840;SDS011;37888;53.246;6.658;2023-06-22T09:31:25;4.23;;;3.10;;
51840;SDS011;37888;53.246;6.658;2023-06-22T09:33:53;3.87;;;3.40;;
51840;SDS011;37888;53.246;6.658;2023-06-22T09:36:22;4.30;;;3.33;;
51840;SDS011;37888;53.246;6.658;2023-06-22T09:38:49;3.60;;;3.25;;
51840;SDS011;37888;53.246;6.658;2023-06-22T09:41:23;4.65;;;3.58;;
51840;SDS011;37888;53.246;6.658;2023-06-22T09:43:49;3.60;;;3.30;;
51840;SDS011;37888;53.246;6.658;2023-06-22T09:46:15;4.07;;;3.63;;
51840;SDS011;37888;53.246;6.658;2023-06-22T09:51:11;5.22;;;3.35;;
51840;SDS011;37888;53.246;6.658;2023-06-22T09:53:37;4.22;;;3.00;;
51840;SDS011;37888;53.246;6.658;2023-06-22T09:56:03;3.88;;;3.42;;
51840;SDS011;37888;53.246;6.658;2023-06-22T09:58:29;3.30;;;3.00;;
51840;SDS011;37888;53.246;6.658;2023-06-22T10:00:54;3.30;;;3.00;;
51840;SDS011;37888;53.246;6.658;2023-06-22T10:03:20;3.70;;;3.40;;
51840;SDS011;37888;53.246;6.658;2023-06-22T10:05:46;4.15;;;3.17;;
51840;SDS011;37888;53.246;6.658;2023-06-22T10:08:12;3.90;;;3.50;;
51840;SDS011;37888;53.246;6.658;2023-06-22T10:10:38;4.30;;;3.33;;
51840;SDS011;37888;53.246;6.658;2023-06-22T10:13:07;4.27;;;3.60;;
51840;SDS011;37888;53.246;6.658;2023-06-22T10:15:37;3.53;;;3.08;;
51840;SDS011;37888;53.246;6.658;2023-06-22T10:18:03;3.65;;;2.97;;
51840;SDS011;37888;53.246;6.658;2023-06-22T10:20:29;3.17;;;2.88;;
51840;SDS011;37888;53.246;6.658;2023-06-22T10:22:55;3.43;;;3.13;;
51840;SDS011;37888;53.246;6.658;2023-06-22T10:25:21;3.67;;;3.10;;
51840;SDS011;37888;53.246;6.658;2023-06-22T10:27:47;4.23;;;2.73;;
51840;SDS011;37888;53.246;6.658;2023-06-22T10:30:13;3.47;;;3.10;;
51840;SDS011;37888;53.246;6.658;2023-06-22T10:32:39;4.20;;;3.20;;
51840;SDS011;37888;53.246;6.658;2023-06-22T10:35:06;3.60;;;3.30;;
51840;SDS011;37888;53.246;6.658;2023-06-22T10:37:32;4.68;;;2.90;;
51840;SDS011;37888;53.246;6.658;2023-06-22T10:39:58;3.87;;;3.07;;
51840;SDS011;37888;53.246;6.658;2023-06-22T10:42:24;3.70;;;2.87;;
51840;SDS011;37888;53.246;6.658;2023-06-22T10:44:50;4.20;;;3.20;;
51840;SDS011;37888;53.246;6.658;2023-06-22T10:47:15;4.10;;;3.00;;
51840;SDS011;37888;53.246;6.658;2023-06-22T10:49:41;5.73;;;3.40;;
51840;SDS011;37888;53.246;6.658;2023-06-22T10:52:08;3.38;;;3.05;;
51840;SDS011;37888;53.246;6.658;2023-06-22T10:54:34;3.22;;;2.92;;
51840;SDS011;37888;53.246;6.658;2023-06-22T10:59:26;3.60;;;3.30;;
51840;SDS011;37888;53.246;6.658;2023-06-22T11:01:53;3.97;;;3.40;;
51840;SDS011;37888;53.246;6.658;2023-06-22T11:06:46;4.07;;;3.67;;
51840;SDS011;37888;53.246;6.658;2023-06-22T11:09:13;5.03;;;3.33;;
51840;SDS011;37888;53.246;6.658;2023-06-22T11:11:43;3.70;;;3.40;;
51840;SDS011;37888;53.246;6.658;2023-06-22T11:14:10;3.45;;;3.15;;
51840;SDS011;37888;53.246;6.658;2023-06-22T11:16:35;3.53;;;3.00;;
51840;SDS011;37888;53.246;6.658;2023-06-22T11:19:01;5.30;;;3.50;;
51840;SDS011;37888;53.246;6.658;2023-06-22T11:21:28;4.28;;;2.97;;
51840;SDS011;37888;53.246;6.658;2023-06-22T11:23:54;3.63;;;2.93;;
51840;SDS011;37888;53.246;6.658;2023-06-22T11:26:19;3.50;;;3.17;;
51840;SDS011;37888;53.246;6.658;2023-06-22T11:28:46;6.00;;;3.63;;
51840;SDS011;37888;53.246;6.658;2023-06-22T11:31:12;3.50;;;3.10;;
51840;SDS011;37888;53.246;6.658;2023-06-22T11:33:38;4.00;;;3.63;;
51840;SDS011;37888;53.246;6.658;2023-06-22T11:36:03;3.43;;;3.13;;
51840;SDS011;37888;53.246;6.658;2023-06-22T11:38:30;3.38;;;3.03;;
51840;SDS011;37888;53.246;6.658;2023-06-22T11:40:57;3.42;;;2.55;;
51840;SDS011;37888;53.246;6.658;2023-06-22T11:43:23;3.65;;;3.13;;
51840;SDS011;37888;53.246;6.658;2023-06-22T11:45:50;5.22;;;3.60;;
51840;SDS011;37888;53.246;6.658;2023-06-22T11:48:16;4.57;;;3.90;;
51840;SDS011;37888;53.246;6.658;2023-06-22T11:50:43;3.67;;;3.22;;
51840;SDS011;37888;53.246;6.658;2023-06-22T11:53:08;5.17;;;3.70;;
51840;SDS011;37888;53.246;6.658;2023-06-22T11:55:34;5.03;;;3.53;;
51840;SDS011;37888;53.246;6.658;2023-06-22T11:58:00;4.63;;;3.00;;
51840;SDS011;37888;53.246;6.658;2023-06-22T12:00:28;4.88;;;3.35;;
51840;SDS011;37888;53.246;6.658;2023-06-22T12:02:54;3.45;;;3.10;;
51840;SDS011;37888;53.246;6.658;2023-06-22T12:05:21;3.42;;;3.03;;
51840;SDS011;37888;53.246;6.658;2023-06-22T12:07:47;4.00;;;3.63;;
51840;SDS011;37888;53.246;6.658;2023-06-22T12:10:13;3.95;;;3.53;;
51840;SDS011;37888;53.246;6.658;2023-06-22T12:12:39;4.15;;;3.33;;
51840;SDS011;37888;53.246;6.658;2023-06-22T12:15:05;3.72;;;3.35;;
51840;SDS011;37888;53.246;6.658;2023-06-22T12:17:32;3.33;;;2.92;;
51840;SDS011;37888;53.246;6.658;2023-06-22T12:19:59;3.70;;;3.35;;
51840;SDS011;37888;53.246;6.658;2023-06-22T12:22:25;4.67;;;3.50;;
51840;SDS011;37888;53.246;6.658;2023-06-22T12:24:50;3.63;;;3.20;;
51840;SDS011;37888;53.246;6.658;2023-06-22T12:27:16;4.00;;;3.60;;
51840;SDS011;37888;53.246;6.658;2023-06-22T12:32:10;3.80;;;3.50;;
51840;SDS011;37888;53.246;6.658;2023-06-22T12:34:38;5.80;;;4.07;;
51840;SDS011;37888;53.246;6.658;2023-06-22T12:37:04;4.13;;;3.58;;
51840;SDS011;37888;53.246;6.658;2023-06-22T12:39:31;8.05;;;4.00;;
51840;SDS011;37888;53.246;6.658;2023-06-22T12:41:57;5.15;;;4.30;;
51840;SDS011;37888;53.246;6.658;2023-06-22T12:44:23;4.20;;;3.67;;
51840;SDS011;37888;53.246;6.658;2023-06-22T12:46:49;4.40;;;3.90;;
51840;SDS011;37888;53.246;6.658;2023-06-22T12:49:15;6.70;;;4.30;;
51840;SDS011;37888;53.246;6.658;2023-06-22T12:51:41;4.87;;;3.53;;
51840;SDS011;37888;53.246;6.658;2023-06-22T12:54:08;4.85;;;3.25;;
51840;SDS011;37888;53.246;6.658;2023-06-22T12:56:34;5.90;;;4.00;;
51840;SDS011;37888;53.246;6.658;2023-06-22T12:59:00;4.18;;;3.70;;
51840;SDS011;37888;53.246;6.658;2023-06-22T13:01:29;4.35;;;3.33;;
51840;SDS011;37888;53.246;6.658;2023-06-22T13:03:58;6.25;;;3.88;;
51840;SDS011;37888;53.246;6.658;2023-06-22T13:06:24;4.30;;;3.25;;
51840;SDS011;37888;53.246;6.658;2023-06-22T13:08:50;3.53;;;3.22;;
51840;SDS011;37888;53.246;6.658;2023-06-22T13:11:16;3.23;;;2.93;;
51840;SDS011;37888;53.246;6.658;2023-06-22T13:13:43;4.93;;;3.08;;
51840;SDS011;37888;53.246;6.658;2023-06-22T13:16:09;3.45;;;2.90;;
51840;SDS011;37888;53.246;6.658;2023-06-22T13:18:35;3.37;;;2.40;;
51840;SDS011;37888;53.246;6.658;2023-06-22T13:21:01;3.67;;;2.77;;
51840;SDS011;37888;53.246;6.658;2023-06-22T13:23:28;3.00;;;2.33;;
51840;SDS011;37888;53.246;6.658;2023-06-22T13:25:54;3.70;;;2.63;;
51840;SDS011;37888;53.246;6.658;2023-06-22T13:28:20;4.33;;;2.27;;
51840;SDS011;37888;53.246;6.658;2023-06-22T13:30:46;3.23;;;2.30;;
51840;SDS011;37888;53.246;6.658;2023-06-22T13:33:13;5.38;;;2.42;;
51840;SDS011;37888;53.246;6.658;2023-06-22T13:35:42;3.30;;;2.22;;
51840;SDS011;37888;53.246;6.658;2023-06-22T13:38:08;3.97;;;2.70;;
51840;SDS011;37888;53.246;6.658;2023-06-22T13:40:34;2.55;;;2.28;;
51840;SDS011;37888;53.246;6.658;2023-06-22T13:43:01;2.88;;;2.20;;
51840;SDS011;37888;53.246;6.658;2023-06-22T13:45:26;2.83;;;2.20;;
51840;SDS011;37888;53.246;6.658;2023-06-22T13:47:52;2.13;;;1.83;;
51840;SDS011;37888;53.246;6.658;2023-06-22T13:50:18;2.53;;;1.90;;
51840;SDS011;37888;53.246;6.658;2023-06-22T13:52:44;6.60;;;2.47;;
51840;SDS011;37888;53.246;6.658;2023-06-22T13:55:09;8.97;;;2.50;;
51840;SDS011;37888;53.246;6.658;2023-06-22T13:57:36;2.85;;;2.30;;
51840;SDS011;37888;53.246;6.658;2023-06-22T14:00:03;2.60;;;1.80;;
51840;SDS011;37888;53.246;6.658;2023-06-22T14:02:33;2.58;;;1.85;;
51840;SDS011;37888;53.246;6.658;2023-06-22T14:04:59;2.92;;;1.90;;
51840;SDS011;37888;53.246;6.658;2023-06-22T14:07:25;2.70;;;1.67;;
51840;SDS011;37888;53.246;6.658;2023-06-22T14:09:51;2.97;;;1.80;;
51840;SDS011;37888;53.246;6.658;2023-06-22T14:12:17;2.57;;;2.00;;
51840;SDS011;37888;53.246;6.658;2023-06-22T14:14:45;2.22;;;1.80;;
51840;SDS011;37888;53.246;6.658;2023-06-22T14:17:11;2.53;;;1.90;;
51840;SDS011;37888;53.246;6.658;2023-06-22T14:19:36;2.20;;;1.60;;
51840;SDS011;37888;53.246;6.658;2023-06-22T14:22:02;2.47;;;1.60;;
51840;SDS011;37888;53.246;6.658;2023-06-22T14:24:28;3.40;;;1.88;;
51840;SDS011;37888;53.246;6.658;2023-06-22T14:26:54;1.70;;;1.23;;
51840;SDS011;37888;53.246;6.658;2023-06-22T14:29:21;2.83;;;1.45;;
51840;SDS011;37888;53.246;6.658;2023-06-22T14:31:47;1.88;;;1.70;;
51840;SDS011;37888;53.246;6.658;2023-06-22T14:34:14;1.75;;;1.23;;
51840;SDS011;37888;53.246;6.658;2023-06-22T14:36:40;2.15;;;1.33;;
51840;SDS011;37888;53.246;6.658;2023-06-22T14:39:07;4.00;;;1.30;;
51840;SDS011;37888;53.246;6.658;2023-06-22T14:41:33;2.47;;;1.55;;
51840;SDS011;37888;53.246;6.658;2023-06-22T14:43:59;1.90;;;0.90;;
51840;SDS011;37888;53.246;6.658;2023-06-22T14:46:25;3.10;;;0.95;;
51840;SDS011;37888;53.246;6.658;2023-06-22T14:48:51;1.80;;;1.20;;
51840;SDS011;37888;53.246;6.658;2023-06-22T14:51:16;2.70;;;1.30;;
51840;SDS011;37888;53.246;6.658;2023-06-22T14:53:43;1.60;;;0.98;;
51840;SDS011;37888;53.246;6.658;2023-06-22T14:56:09;1.50;;;0.90;;
51840;SDS011;37888;53.246;6.658;2023-06-22T14:58:35;1.92;;;0.93;;
51840;SDS011;37888;53.246;6.658;2023-06-22T15:01:04;1.67;;;0.97;;
51840;SDS011;37888;53.246;6.658;2023-06-22T15:03:33;2.90;;;1.00;;
51840;SDS011;37888;53.246;6.658;2023-06-22T15:06:01;2.63;;;0.98;;